Time;durP1;ratioP1;P1;durP2;ratioP2;P2;SDS_P1;SDS_P2;PMS_P1;PMS_P2;Temp;Humidity;BMP_temperature;BMP_pressure;BME280_temperature;BME280_humidity;BME280_pressure;Samples;Min_cycle;Max_cycle;Signal;HPM_P1;HPM_P2
2022/08/17 00:00:30;;;;;;;41.03;38.60;;;21.60;71.20;;;;;;5050784;28;20033;-78
2022/08/17 00:03:08;;;;;;;40.20;37.80;;;21.60;71.50;;;;;;5049602;28;20557;-78
2022/08/17 00:05:42;;;;;;;38.38;36.20;;;21.60;71.70;;;;;;5049223;28;20033;-78
2022/08/17 00:08:09;;;;;;;36.97;34.95;;;21.60;71.70;;;;;;5049817;28;20032;-78
2022/08/17 00:10:35;;;;;;;38.20;35.55;;;21.60;71.70;;;;;;5049573;28;20033;-78
2022/08/17 00:13:07;;;;;;;37.75;35.70;;;21.70;71.90;;;;;;5049585;28;20052;-78
2022/08/17 00:15:33;;;;;;;37.70;35.55;;;21.60;72.20;;;;;;5048968;28;20430;-78
2022/08/17 00:17:59;;;;;;;38.15;35.42;;;21.60;72.20;;;;;;5049261;28;20033;-77
2022/08/17 00:20:25;;;;;;;36.80;34.83;;;21.50;72.30;;;;;;5049182;28;20033;-78
2022/08/17 00:23:11;;;;;;;37.00;34.92;;;21.60;72.50;;;;;;5050071;28;20484;-78
2022/08/17 00:25:38;;;;;;;37.50;35.13;;;21.60;72.50;;;;;;5036760;28;20037;-78
2022/08/17 00:28:05;;;;;;;37.13;35.03;;;21.60;72.40;;;;;;5053755;28;20036;-78
2022/08/17 00:30:31;;;;;;;38.25;36.20;;;21.50;72.40;;;;;;5036285;28;20384;-77
2022/08/17 00:32:57;;;;;;;37.30;35.17;;;21.50;72.40;;;;;;5053359;28;20028;-78
2022/08/17 00:35:23;;;;;;;37.42;35.25;;;21.50;72.20;;;;;;5053075;28;20029;-77
2022/08/17 00:37:50;;;;;;;36.58;34.35;;;21.40;72.30;;;;;;5036564;28;20063;-78
2022/08/17 00:40:17;;;;;;;37.47;35.35;;;21.40;72.60;;;;;;5053261;28;20051;-78
2022/08/17 00:42:44;;;;;;;37.28;35.22;;;21.30;72.70;;;;;;5036446;28;20037;-78
2022/08/17 00:45:12;;;;;;;37.88;35.60;;;21.30;72.80;;;;;;5036332;28;20487;-78
2022/08/17 00:47:39;;;;;;;36.47;34.25;;;21.40;73.00;;;;;;5036409;28;20060;-77
2022/08/17 00:50:08;;;;;;;37.55;35.35;;;21.40;72.90;;;;;;5036239;28;20045;-78
2022/08/17 00:52:36;;;;;;;37.25;35.03;;;21.40;73.10;;;;;;5053127;28;20029;-78
2022/08/17 00:55:02;;;;;;;36.65;34.25;;;21.30;73.30;;;;;;5053096;28;20032;-78
2022/08/17 00:57:32;;;;;;;39.45;36.97;;;21.30;72.90;;;;;;5036200;28;20472;-77
2022/08/17 01:00:04;;;;;;;38.17;35.97;;;21.20;73.00;;;;;;5036628;28;20037;-78
2022/08/17 01:02:32;;;;;;;37.40;35.10;;;21.20;73.20;;;;;;5035532;28;20036;-78
2022/08/17 01:04:58;;;;;;;35.70;33.58;;;21.10;73.20;;;;;;5035750;28;20041;-78
2022/08/17 01:07:25;;;;;;;41.15;38.55;;;21.10;73.30;;;;;;5036534;28;20427;-78
2022/08/17 01:09:52;;;;;;;40.88;38.13;;;21.10;73.60;;;;;;5036127;28;20053;-77
2022/08/17 01:12:18;;;;;;;39.08;36.88;;;21.20;73.50;;;;;;5036268;28;20033;-77
2022/08/17 01:14:44;;;;;;;36.65;34.38;;;21.20;73.20;;;;;;5052838;28;20048;-77
2022/08/17 01:17:11;;;;;;;38.65;36.53;;;21.10;73.30;;;;;;5053409;28;20029;-77
2022/08/17 01:19:38;;;;;;;38.20;35.83;;;21.10;73.40;;;;;;5053464;28;20098;-78
2022/08/17 01:22:07;;;;;;;40.22;37.88;;;21.10;73.40;;;;;;5052472;28;20025;-78
2022/08/17 01:24:34;;;;;;;38.17;36.00;;;21.00;73.80;;;;;;5053860;28;20494;-78
2022/08/17 01:27:01;;;;;;;39.70;37.22;;;21.10;73.90;;;;;;5052545;28;20036;-78
2022/08/17 01:29:29;;;;;;;37.22;34.92;;;21.00;73.70;;;;;;5052402;28;20044;-78
2022/08/17 01:31:59;;;;;;;34.03;31.70;;;21.00;73.90;;;;;;5035581;28;20379;-77
2022/08/17 01:34:25;;;;;;;33.90;31.90;;;20.90;73.90;;;;;;5035136;28;20045;-78
2022/08/17 01:36:51;;;;;;;40.13;37.55;;;20.90;74.00;;;;;;5052158;28;20032;-78
2022/08/17 01:39:47;;;;;;;39.50;37.20;;;20.90;74.40;;;;;;5052264;28;20025;-78
2022/08/17 01:42:23;;;;;;;32.63;30.73;;;21.00;73.90;;;;;;5068112;28;20116;-78
2022/08/17 01:44:51;;;;;;;36.65;34.33;;;20.90;73.90;;;;;;5038750;28;20380;-78
2022/08/17 01:47:17;;;;;;;39.45;37.20;;;20.90;74.10;;;;;;5031546;28;20049;-77
2022/08/17 01:49:43;;;;;;;39.28;36.88;;;21.00;74.00;;;;;;5051944;28;20033;-77
2022/08/17 01:52:09;;;;;;;37.63;35.17;;;20.90;73.90;;;;;;5035248;28;20056;-78
2022/08/17 01:54:36;;;;;;;37.50;35.33;;;20.90;74.00;;;;;;5052058;28;20036;-77
2022/08/17 01:57:03;;;;;;;35.42;33.22;;;20.90;74.30;;;;;;5051761;28;20033;-78
2022/08/17 01:59:29;;;;;;;34.58;32.40;;;20.80;74.10;;;;;;5051928;28;20021;-77
2022/08/17 02:01:55;;;;;;;39.05;36.58;;;20.80;74.30;;;;;;5052356;28;20407;-78
2022/08/17 02:04:21;;;;;;;32.35;30.25;;;20.80;74.40;;;;;;5051652;28;20048;-77
2022/08/17 02:06:47;;;;;;;32.97;30.98;;;20.80;74.40;;;;;;5051670;28;20480;-78
2022/08/17 02:09:13;;;;;;;33.90;31.98;;;20.70;74.40;;;;;;5035032;28;20045;-77
2022/08/17 02:11:40;;;;;;;32.97;30.73;;;20.70;74.50;;;;;;5051687;28;20028;-78
2022/08/17 02:14:07;;;;;;;34.85;32.65;;;20.70;74.50;;;;;;5051553;28;20032;-78
2022/08/17 02:16:34;;;;;;;38.28;35.90;;;20.70;74.40;;;;;;5050909;28;20052;-78
2022/08/17 02:19:00;;;;;;;33.63;31.58;;;20.70;74.60;;;;;;5051562;28;20028;-78
2022/08/17 02:24:23;;;;;;;30.52;28.45;;;20.70;74.60;;;;;;5056153;28;20048;-78
2022/08/17 02:26:49;;;;;;;30.70;28.83;;;20.70;74.70;;;;;;5034680;28;20037;-77
2022/08/17 02:29:15;;;;;;;29.55;27.50;;;20.70;74.50;;;;;;5034705;28;20044;-78
2022/08/17 02:31:42;;;;;;;31.33;29.30;;;20.70;74.90;;;;;;5050497;28;20403;-78
2022/08/17 02:34:08;;;;;;;30.55;28.35;;;20.70;74.50;;;;;;5051275;28;20487;-78
2022/08/17 02:36:34;;;;;;;29.70;27.85;;;20.70;74.60;;;;;;5050978;28;20040;-77
2022/08/17 02:39:02;;;;;;;30.15;28.35;;;20.60;74.70;;;;;;5033971;28;20041;-78
2022/08/17 02:41:28;;;;;;;31.02;29.00;;;20.70;75.00;;;;;;5034752;28;20051;-77
2022/08/17 02:43:54;;;;;;;33.17;31.08;;;20.70;74.80;;;;;;5045260;28;20392;-78
2022/08/17 02:46:21;;;;;;;33.50;31.17;;;20.70;74.70;;;;;;5039491;28;20032;-77
2022/08/17 02:48:47;;;;;;;31.13;28.92;;;20.70;74.60;;;;;;5052241;28;20025;-78
2022/08/17 02:51:13;;;;;;;29.35;27.40;;;20.70;74.60;;;;;;5050814;28;20029;-77
2022/08/17 02:53:39;;;;;;;29.95;27.83;;;20.60;74.80;;;;;;5050970;28;20029;-77
2022/08/17 02:56:06;;;;;;;29.70;27.42;;;20.60;75.20;;;;;;5034603;28;20043;-77
2022/08/17 02:58:32;;;;;;;30.13;28.10;;;20.60;75.10;;;;;;5050785;28;20033;-78
2022/08/17 03:00:58;;;;;;;30.05;28.05;;;20.60;74.90;;;;;;5050074;28;20602;-78
2022/08/17 03:03:25;;;;;;;28.85;26.67;;;20.60;75.00;;;;;;5034389;28;20487;-77
2022/08/17 03:05:52;;;;;;;28.83;26.65;;;20.60;75.10;;;;;;5051953;28;20025;-77
2022/08/17 03:08:18;;;;;;;27.88;25.70;;;20.60;75.20;;;;;;5051757;28;20361;-78
2022/08/17 03:10:44;;;;;;;27.98;25.98;;;20.60;75.30;;;;;;5050427;28;20041;-78
2022/08/17 03:13:13;;;;;;;27.27;25.52;;;20.60;75.50;;;;;;5034224;28;20048;-77
2022/08/17 03:15:39;;;;;;;26.83;24.92;;;20.60;75.70;;;;;;5049548;28;20028;-78
2022/08/17 03:18:06;;;;;;;27.45;25.63;;;20.60;76.00;;;;;;5050403;28;20033;-77
2022/08/17 03:20:32;;;;;;;27.20;25.02;;;20.60;76.10;;;;;;5033672;28;20036;-78
2022/08/17 03:22:58;;;;;;;25.08;23.38;;;20.60;76.10;;;;;;5050161;28;20032;-77
2022/08/17 03:25:36;;;;;;;25.05;23.25;;;20.60;76.10;;;;;;5050451;28;20036;-78
2022/08/17 03:28:03;;;;;;;26.75;24.90;;;20.60;75.70;;;;;;5033562;28;20052;-78
2022/08/17 03:30:29;;;;;;;27.23;25.13;;;20.50;75.70;;;;;;5050591;28;20385;-78
2022/08/17 03:32:58;;;;;;;24.75;23.10;;;20.50;75.90;;;;;;5050110;28;20044;-78
2022/08/17 03:35:27;;;;;;;24.70;22.88;;;20.40;76.00;;;;;;5033627;28;20480;-78
2022/08/17 03:37:53;;;;;;;25.60;23.60;;;20.40;76.00;;;;;;5049834;28;20051;-78
2022/08/17 03:40:20;;;;;;;26.23;24.33;;;20.50;75.90;;;;;;5033038;28;20036;-78
2022/08/17 03:42:46;;;;;;;26.33;24.63;;;20.50;75.60;;;;;;5049988;28;20383;-77
2022/08/17 03:45:14;;;;;;;25.63;23.85;;;20.50;75.60;;;;;;5032570;28;20392;-78
2022/08/17 03:58:45;;;;;;;24.77;23.08;;;20.50;76.20;;;;;;5053293;28;20044;-78
2022/08/17 04:01:11;;;;;;;24.67;22.90;;;20.40;76.10;;;;;;5049478;28;20511;-77
2022/08/17 04:03:38;;;;;;;26.20;23.88;;;20.40;76.20;;;;;;5049779;28;20032;-78
2022/08/17 04:06:04;;;;;;;24.55;22.77;;;20.30;76.20;;;;;;5049671;28;20471;-78
2022/08/17 04:08:30;;;;;;;24.83;23.08;;;20.30;76.60;;;;;;5049813;28;20440;-78
2022/08/17 04:10:56;;;;;;;24.58;22.63;;;20.30;76.60;;;;;;5032735;28;20045;-78
2022/08/17 04:13:22;;;;;;;25.90;23.80;;;20.30;76.70;;;;;;5032647;28;20044;-78
2022/08/17 04:15:48;;;;;;;25.27;23.00;;;20.30;77.40;;;;;;5032408;28;20044;-77
2022/08/17 04:18:15;;;;;;;27.15;25.13;;;20.30;77.60;;;;;;5049688;28;20376;-77
2022/08/17 04:20:41;;;;;;;27.88;25.83;;;20.30;76.80;;;;;;5051172;28;20029;-77
2022/08/17 04:23:10;;;;;;;25.90;23.63;;;20.30;76.80;;;;;;5049522;28;20065;-77
2022/08/17 04:25:37;;;;;;;25.02;23.23;;;20.30;76.90;;;;;;5049473;28;20025;-77
2022/08/17 04:28:03;;;;;;;26.05;24.02;;;20.30;76.90;;;;;;5049191;28;20028;-78
2022/08/17 04:30:31;;;;;;;26.27;24.08;;;20.30;76.80;;;;;;5048866;28;20040;-77
2022/08/17 04:32:59;;;;;;;24.90;23.00;;;20.30;77.30;;;;;;5049295;28;20025;-78
2022/08/17 04:35:29;;;;;;;24.95;23.15;;;20.30;77.20;;;;;;5032544;28;20044;-78
2022/08/17 04:37:55;;;;;;;25.25;23.27;;;20.30;77.00;;;;;;5049593;28;20025;-77
2022/08/17 04:43:08;;;;;;;26.05;24.23;;;20.30;77.20;;;;;;5052658;28;20048;-77
2022/08/17 04:45:41;;;;;;;25.55;23.73;;;20.30;77.40;;;;;;5031667;28;20480;-78
2022/08/17 04:48:07;;;;;;;26.20;24.00;;;20.30;77.50;;;;;;5032672;28;20049;-77
2022/08/17 04:50:34;;;;;;;25.55;23.73;;;20.30;77.50;;;;;;5049099;28;20052;-78
2022/08/17 04:53:01;;;;;;;27.35;25.30;;;20.30;77.40;;;;;;5032465;28;20044;-77
2022/08/17 04:55:27;;;;;;;28.10;26.00;;;20.30;78.10;;;;;;5048820;28;20029;-78
2022/08/17 04:57:53;;;;;;;29.00;26.65;;;20.30;77.50;;;;;;5049289;28;20040;-77
2022/08/17 05:00:19;;;;;;;28.17;26.13;;;20.20;77.40;;;;;;5049793;28;20033;-77
2022/08/17 05:02:46;;;;;;;29.00;26.75;;;20.20;77.70;;;;;;5032576;28;20041;-78
2022/08/17 05:05:24;;;;;;;27.40;25.20;;;20.20;77.40;;;;;;5049322;28;20036;-77
2022/08/17 05:07:51;;;;;;;27.35;25.00;;;20.20;77.40;;;;;;5033698;28;20041;-78
2022/08/17 05:10:18;;;;;;;28.10;25.88;;;20.20;77.20;;;;;;5051461;28;20040;-78
2022/08/17 05:12:44;;;;;;;26.75;24.85;;;20.20;77.30;;;;;;5052869;28;20025;-78
2022/08/17 05:15:15;;;;;;;26.50;24.17;;;20.20;77.30;;;;;;5052411;28;20033;-78
2022/08/17 05:17:44;;;;;;;25.87;24.03;;;20.20;77.40;;;;;;5052829;28;20064;-78
2022/08/17 05:20:10;;;;;;;27.80;25.63;;;20.20;77.30;;;;;;5035951;28;20037;-77
2022/08/17 05:22:48;;;;;;;27.88;25.67;;;20.20;77.10;;;;;;5052680;28;20039;-77
2022/08/17 05:25:18;;;;;;;26.85;24.75;;;20.10;77.40;;;;;;5052198;28;20494;-77
2022/08/17 05:27:44;;;;;;;28.92;26.70;;;20.10;77.40;;;;;;5052603;28;20032;-78
2022/08/17 05:30:11;;;;;;;28.50;26.42;;;20.00;77.30;;;;;;5053315;28;20033;-77
2022/08/17 05:32:37;;;;;;;30.10;27.30;;;20.00;77.80;;;;;;5052526;28;20025;-78
2022/08/17 05:35:04;;;;;;;26.80;24.70;;;20.00;77.70;;;;;;5053527;28;20044;-78
2022/08/17 05:37:30;;;;;;;27.02;24.83;;;20.00;77.70;;;;;;5052393;28;20376;-78
2022/08/17 05:39:56;;;;;;;29.08;26.65;;;20.00;78.50;;;;;;5052998;28;20037;-78
2022/08/17 05:42:22;;;;;;;26.90;24.70;;;19.90;79.50;;;;;;5034534;28;20531;-78
2022/08/17 05:44:48;;;;;;;26.17;24.08;;;19.80;80.60;;;;;;5038789;28;20034;-77
2022/08/17 05:47:15;;;;;;;23.98;22.13;;;19.70;81.20;;;;;;5015080;28;20049;-78
2022/08/17 05:49:41;;;;;;;28.25;25.85;;;19.60;81.70;;;;;;5052092;28;20033;-78
2022/08/17 05:52:19;;;;;;;24.17;22.40;;;19.50;82.90;;;;;;5035174;28;20040;-77
2022/08/17 05:55:24;;;;;;;28.52;26.48;;;19.70;82.10;;;;;;5051632;28;20024;-77
2022/08/17 05:58:05;;;;;;;25.15;23.42;;;20.00;81.40;;;;;;5052132;28;20037;-78
2022/08/17 06:00:49;;;;;;;34.03;31.65;;;20.30;80.90;;;;;;5051421;28;20403;-77
2022/08/17 06:03:24;;;;;;;38.38;35.97;;;20.50;80.30;;;;;;5037090;28;20033;-78
2022/08/17 06:06:11;;;;;;;37.00;34.45;;;20.70;79.60;;;;;;5035046;28;20480;-78
2022/08/17 06:09:01;;;;;;;32.63;30.52;;;20.90;78.60;;;;;;5051523;28;20471;-78
2022/08/17 06:11:44;;;;;;;30.30;28.50;;;21.20;77.70;;;;;;5034661;28;20056;-77
2022/08/17 06:14:19;;;;;;;26.17;23.95;;;21.50;77.00;;;;;;5051789;28;20025;-78
2022/08/17 06:16:52;;;;;;;24.05;22.52;;;21.70;76.30;;;;;;5052440;28;20040;-78
2022/08/17 06:19:19;;;;;;;25.55;23.85;;;21.90;74.90;;;;;;5051719;28;20028;-77
2022/08/17 06:21:47;;;;;;;28.23;26.42;;;22.00;74.30;;;;;;5033734;28;20056;-77
2022/08/17 06:24:23;;;;;;;32.47;30.23;;;22.00;73.60;;;;;;5051350;28;20028;-78
2022/08/17 06:26:49;;;;;;;32.97;30.77;;;22.10;73.50;;;;;;5034475;28;20040;-78
2022/08/17 06:29:57;;;;;;;31.35;29.38;;;22.20;73.20;;;;;;5051451;28;20379;-78
2022/08/17 06:32:23;;;;;;;30.40;28.38;;;22.20;72.60;;;;;;5032246;28;20045;-77
2022/08/17 06:34:50;;;;;;;32.17;30.05;;;22.30;71.90;;;;;;5034264;28;20495;-78
2022/08/17 06:37:48;;;;;;;36.75;34.45;;;22.20;71.90;;;;;;5034151;28;20045;-78
2022/08/17 06:40:31;;;;;;;34.78;32.33;;;22.20;72.40;;;;;;5037801;28;20025;-78
2022/08/17 06:43:00;;;;;;;29.20;27.40;;;22.30;73.20;;;;;;5016137;28;20411;-78
2022/08/17 06:45:38;;;;;;;35.70;33.53;;;22.30;73.50;;;;;;5048940;28;20040;-78
2022/08/17 06:48:45;;;;;;;29.92;28.05;;;22.50;73.00;;;;;;5034278;28;20056;-78
2022/08/17 06:51:19;;;;;;;30.63;28.40;;;22.50;72.20;;;;;;5010135;28;20069;-78
2022/08/17 06:53:50;;;;;;;33.92;31.67;;;22.60;71.50;;;;;;5009538;28;20042;-78
2022/08/17 06:56:25;;;;;;;36.20;33.72;;;22.60;71.20;;;;;;5009798;28;20056;-78
2022/08/17 06:58:52;;;;;;;37.78;35.10;;;22.60;71.10;;;;;;5010055;28;20029;-78
2022/08/17 07:01:20;;;;;;;34.20;31.90;;;22.60;71.40;;;;;;4992859;28;20033;-78
2022/08/17 07:03:56;;;;;;;33.70;31.42;;;22.60;71.50;;;;;;5009799;28;20038;-78
2022/08/17 07:06:26;;;;;;;34.67;32.40;;;22.70;72.10;;;;;;5009711;28;20030;-77
2022/08/17 07:09:14;;;;;;;37.15;34.92;;;23.00;72.20;;;;;;5009506;28;20049;-78
2022/08/17 07:12:18;;;;;;;34.65;32.35;;;23.30;71.20;;;;;;4992196;28;20069;-78
2022/08/17 07:15:07;;;;;;;38.42;35.72;;;23.60;70.00;;;;;;5001949;28;20035;-78
2022/08/17 07:17:33;;;;;;;35.78;33.42;;;23.80;69.60;;;;;;4971902;28;20046;-78
2022/08/17 07:20:21;;;;;;;34.15;31.92;;;24.10;68.60;;;;;;5005963;28;20034;-78
2022/08/17 07:22:57;;;;;;;34.97;32.85;;;24.30;67.30;;;;;;4992759;28;20035;-78
2022/08/17 07:25:24;;;;;;;35.10;32.75;;;24.50;66.60;;;;;;4958129;28;20053;-78
2022/08/17 07:27:52;;;;;;;34.53;32.30;;;24.60;65.70;;;;;;4957509;28;20393;-78
2022/08/17 07:30:26;;;;;;;34.80;32.42;;;24.60;64.50;;;;;;4956985;28;20050;-78
2022/08/17 07:32:57;;;;;;;37.63;35.40;;;24.40;64.90;;;;;;4957837;28;20030;-78
2022/08/17 07:35:35;;;;;;;34.47;32.22;;;24.10;66.10;;;;;;4957257;28;20501;-78
2022/08/17 07:38:15;;;;;;;35.08;32.53;;;24.20;65.80;;;;;;4973999;28;20046;-78
2022/08/17 07:40:48;;;;;;;33.58;31.25;;;24.00;66.10;;;;;;4970127;28;20042;-78
2022/08/17 07:43:22;;;;;;;34.95;32.80;;;24.10;66.60;;;;;;4954684;28;20417;-78
2022/08/17 07:48:35;;;;;;;30.05;28.05;;;24.20;65.80;;;;;;4970684;28;20054;-78
2022/08/17 07:51:10;;;;;;;30.60;28.52;;;24.10;66.60;;;;;;4998006;28;20049;-78
2022/08/17 07:53:36;;;;;;;30.05;27.77;;;23.90;66.80;;;;;;5028080;28;20033;-77
2022/08/17 07:56:03;;;;;;;30.65;28.60;;;23.90;67.00;;;;;;5029454;28;20037;-78
2022/08/17 07:58:29;;;;;;;30.40;28.35;;;24.10;66.60;;;;;;5046409;28;20022;-78
2022/08/17 08:01:10;;;;;;;29.10;27.05;;;24.10;66.70;;;;;;5028735;28;20033;-78
2022/08/17 08:03:44;;;;;;;35.70;33.53;;;23.80;67.40;;;;;;5045811;28;20475;-78
2022/08/17 08:06:21;;;;;;;32.65;30.63;;;23.60;68.00;;;;;;5028910;28;20551;-78
2022/08/17 08:08:54;;;;;;;25.17;23.33;;;23.70;68.10;;;;;;5046204;28;20026;-78
2022/08/17 08:11:31;;;;;;;29.55;27.63;;;23.60;67.90;;;;;;5029237;28;20053;-78
2022/08/17 08:14:28;;;;;;;30.10;27.92;;;23.40;68.80;;;;;;5029024;28;20041;-78
2022/08/17 08:17:05;;;;;;;27.88;26.15;;;23.60;66.50;;;;;;5029022;28;20029;-77
2022/08/17 08:19:31;;;;;;;25.35;23.80;;;23.70;65.90;;;;;;5028835;28;20820;-78
2022/08/17 08:22:05;;;;;;;28.40;26.38;;;23.70;65.00;;;;;;5046340;28;20025;-78
2022/08/17 08:25:04;;;;;;;27.63;26.05;;;23.80;64.70;;;;;;5029107;28;20496;-78
2022/08/17 08:27:40;;;;;;;26.73;25.13;;;23.90;64.40;;;;;;5043806;28;20029;-78
2022/08/17 08:30:14;;;;;;;26.67;24.80;;;24.00;64.30;;;;;;5044908;28;20022;-78
2022/08/17 08:32:45;;;;;;;24.52;23.08;;;24.00;64.30;;;;;;5045997;28;20045;-78
2022/08/17 08:35:53;;;;;;;29.38;27.38;;;23.70;64.90;;;;;;5034780;28;20037;-78
2022/08/17 08:38:41;;;;;;;24.60;23.10;;;23.30;67.50;;;;;;5008581;28;20177;-78
2022/08/17 08:41:07;;;;;;;26.17;24.50;;;23.40;67.20;;;;;;5008931;28;20037;-78
2022/08/17 08:43:36;;;;;;;24.65;23.20;;;23.70;66.40;;;;;;5008714;28;20416;-78
2022/08/17 08:46:26;;;;;;;29.25;27.55;;;24.00;66.20;;;;;;5008573;28;20651;-78
2022/08/17 08:49:26;;;;;;;28.05;26.30;;;24.40;65.60;;;;;;4992452;28;20164;-78
2022/08/17 08:51:54;;;;;;;27.63;25.95;;;24.90;63.20;;;;;;4969520;28;20054;-78
2022/08/17 08:54:44;;;;;;;29.27;27.77;;;25.00;60.80;;;;;;4956782;28;20042;-78
2022/08/17 08:57:20;;;;;;;33.88;31.67;;;24.90;61.60;;;;;;4973239;28;20035;-78
2022/08/17 09:00:13;;;;;;;58.05;54.97;;;24.90;61.90;;;;;;4956750;28;20042;-78
2022/08/17 09:03:01;;;;;;;30.08;28.08;;;25.10;59.90;;;;;;4968556;28;20038;-78
2022/08/17 09:05:46;;;;;;;28.55;26.65;;;24.90;59.40;;;;;;4973242;28;20038;-77
2022/08/17 09:08:42;;;;;;;26.13;24.67;;;24.50;59.60;;;;;;4972940;28;20410;-77
2022/08/17 09:11:10;;;;;;;29.33;27.52;;;24.50;59.90;;;;;;4972940;28;20054;-78
2022/08/17 09:13:48;;;;;;;29.17;27.33;;;24.60;60.00;;;;;;4972212;28;20043;-78
2022/08/17 09:16:28;;;;;;;26.23;24.50;;;24.60;59.00;;;;;;4956221;28;20042;-78
2022/08/17 09:19:22;;;;;;;26.90;25.33;;;24.30;59.80;;;;;;4941203;28;20039;-78
2022/08/17 09:21:59;;;;;;;27.63;25.92;;;24.30;59.80;;;;;;4973073;28;20046;-78
2022/08/17 09:24:31;;;;;;;29.05;27.30;;;24.40;59.90;;;;;;4972478;28;20043;-78
2022/08/17 09:27:02;;;;;;;35.60;33.65;;;24.50;60.00;;;;;;4956788;28;20065;-77
2022/08/17 09:29:28;;;;;;;;;;;24.40;61.00;;;;;;5015801;28;20042;-78
2022/08/17 09:31:56;;;;;;;32.80;30.85;;;24.20;61.70;;;;;;5064763;28;19917;-78
2022/08/17 09:34:47;;;;;;;44.47;41.92;;;23.90;62.30;;;;;;5015482;28;20060;-77
2022/08/17 09:37:33;;;;;;;34.88;32.78;;;23.70;63.10;;;;;;5033745;28;20037;-78
2022/08/17 09:40:17;;;;;;;33.65;31.35;;;23.70;63.60;;;;;;5044897;28;20036;-78
2022/08/17 09:42:47;;;;;;;36.50;34.40;;;23.90;63.20;;;;;;5053571;28;20033;-78
2022/08/17 09:45:48;;;;;;;35.83;33.73;;;23.90;63.00;;;;;;5034785;28;20044;-78
2022/08/17 09:48:18;;;;;;;60.08;56.47;;;23.80;63.40;;;;;;5032384;28;20303;-78
2022/08/17 09:51:07;;;;;;;65.90;62.42;;;23.70;65.10;;;;;;5032337;28;20487;-78
2022/08/17 09:53:37;;;;;;;55.05;52.10;;;23.70;64.00;;;;;;5032196;28;20480;-78
2022/08/17 09:56:16;;;;;;;42.63;40.53;;;23.70;63.80;;;;;;5032088;28;20025;-78
2022/08/17 09:59:12;;;;;;;32.58;30.77;;;23.80;62.50;;;;;;5032164;28;20025;-77
2022/08/17 10:01:43;;;;;;;35.13;32.97;;;24.00;60.20;;;;;;5014652;28;20029;-78
2022/08/17 10:04:13;;;;;;;34.10;31.85;;;24.00;59.60;;;;;;5031965;28;20044;-77
2022/08/17 10:06:51;;;;;;;33.75;31.98;;;23.90;59.30;;;;;;5032027;28;20519;-78
2022/08/17 10:09:22;;;;;;;34.10;31.92;;;23.90;60.00;;;;;;5015685;28;20042;-78
2022/08/17 10:12:16;;;;;;;32.72;30.70;;;24.10;60.10;;;;;;5015473;28;20516;-78
2022/08/17 10:15:17;;;;;;;30.63;29.02;;;24.10;59.30;;;;;;5031702;28;20476;-78
2022/08/17 10:18:11;;;;;;;30.00;28.35;;;24.40;59.40;;;;;;4999585;28;20412;-78
2022/08/17 10:26:32;;;;;;;30.67;28.98;;;24.10;58.80;;;;;;5033743;28;20108;-78
2022/08/17 10:29:21;;;;;;;32.25;30.40;;;24.10;58.90;;;;;;5014515;28;20033;-78
2022/08/17 10:31:58;;;;;;;31.98;30.10;;;24.20;58.80;;;;;;5030686;28;20500;-78
2022/08/17 10:34:28;;;;;;;29.45;27.67;;;24.20;58.40;;;;;;5032367;28;20392;-78
2022/08/17 10:37:09;;;;;;;28.52;26.83;;;24.20;57.70;;;;;;5031128;28;20037;-77
2022/08/17 10:40:06;;;;;;;25.05;23.27;;;24.20;55.50;;;;;;5019306;28;20060;-78
2022/08/17 10:42:43;;;;;;;24.35;22.75;;;24.00;56.10;;;;;;5033224;28;20040;-78
2022/08/17 10:45:19;;;;;;;24.15;22.73;;;23.90;56.90;;;;;;5014193;28;20034;-77
2022/08/17 10:48:25;;;;;;;25.58;24.17;;;23.90;57.20;;;;;;4998208;28;20048;-78
2022/08/17 10:51:09;;;;;;;26.27;24.73;;;24.00;56.80;;;;;;4992999;28;20038;-78
2022/08/17 10:53:38;;;;;;;26.30;24.70;;;24.10;56.60;;;;;;5009957;28;20042;-77
2022/08/17 10:56:13;;;;;;;33.08;31.15;;;24.10;56.80;;;;;;5010168;28;20042;-78
2022/08/17 10:58:48;;;;;;;30.70;28.23;;;24.30;56.20;;;;;;5009766;28;20053;-78
2022/08/17 11:01:14;;;;;;;37.03;35.10;;;24.10;55.60;;;;;;4992709;28;20508;-78
2022/08/17 11:03:53;;;;;;;50.28;47.83;;;23.80;57.30;;;;;;5009527;28;20073;-78
2022/08/17 11:06:37;;;;;;;37.72;35.78;;;23.50;58.60;;;;;;4992720;28;20041;-78
2022/08/17 11:09:06;;;;;;;41.72;39.42;;;23.10;60.00;;;;;;5010087;28;20408;-78
2022/08/17 11:11:38;;;;;;;39.40;37.15;;;23.00;61.10;;;;;;5009875;28;20057;-78
2022/08/17 11:14:30;;;;;;;41.55;39.50;;;23.00;62.10;;;;;;5009527;28;20045;-77
2022/08/17 11:17:40;;;;;;;40.78;38.13;;;22.90;62.70;;;;;;4992305;28;20037;-77
2022/08/17 11:20:21;;;;;;;36.17;34.22;;;22.90;63.40;;;;;;4989635;28;20057;-78
2022/08/17 11:23:01;;;;;;;38.88;36.47;;;22.80;64.00;;;;;;4990032;28;20062;-77
2022/08/17 11:25:47;;;;;;;49.13;46.40;;;22.80;64.60;;;;;;4973594;28;20049;-76
2022/08/17 11:28:33;;;;;;;63.53;60.15;;;22.80;65.40;;;;;;4946410;28;20039;-76
2022/08/17 11:31:27;;;;;;;58.00;54.42;;;22.80;65.90;;;;;;4968564;28;20089;-76
2022/08/17 11:34:00;;;;;;;36.42;33.92;;;22.80;67.20;;;;;;4984066;28;20072;-77
2022/08/17 11:36:38;;;;;;;39.80;37.60;;;22.70;67.00;;;;;;4985684;28;20047;-77
2022/08/17 11:39:29;;;;;;;37.00;34.67;;;22.50;68.70;;;;;;4957690;28;20472;-77
2022/08/17 11:42:33;;;;;;;34.90;32.83;;;22.40;69.00;;;;;;4973898;28;20082;-77
2022/08/17 11:45:06;;;;;;;35.65;33.40;;;22.40;70.00;;;;;;4989817;28;20037;-77
2022/08/17 11:53:36;;;;;;;43.28;40.95;;;22.50;71.80;;;;;;4989476;28;20050;-77
2022/08/17 11:56:21;;;;;;;46.38;43.72;;;22.50;71.60;;;;;;5026895;28;20403;-77
2022/08/17 11:58:47;;;;;;;51.10;48.47;;;22.50;72.10;;;;;;5031288;28;20419;-77
2022/08/17 12:01:23;;;;;;;49.28;46.65;;;22.60;72.30;;;;;;5013132;28;20029;-77
2022/08/17 12:03:53;;;;;;;48.35;45.92;;;22.60;72.30;;;;;;5031010;28;20471;-77
2022/08/17 12:06:53;;;;;;;49.90;47.13;;;22.60;72.40;;;;;;5029506;28;20038;-79
2022/08/17 12:09:23;;;;;;;51.43;48.67;;;22.60;72.30;;;;;;5030366;28;20030;-76
2022/08/17 12:11:52;;;;;;;54.67;51.47;;;22.60;73.10;;;;;;5029532;28;20296;-76
2022/08/17 12:14:24;;;;;;;53.00;50.20;;;22.60;72.90;;;;;;5029847;28;20040;-79
2022/08/17 12:16:57;;;;;;;53.42;50.42;;;22.60;73.30;;;;;;5012680;28;20392;-77
2022/08/17 12:19:26;;;;;;;64.32;61.03;;;22.60;73.50;;;;;;5028854;28;20025;-77
2022/08/17 12:22:04;;;;;;;51.28;48.60;;;22.70;72.80;;;;;;5029756;28;20029;-77
2022/08/17 12:24:40;;;;;;;52.55;49.80;;;22.70;72.80;;;;;;5029714;28;20025;-76
2022/08/17 12:27:08;;;;;;;53.75;50.92;;;22.70;73.20;;;;;;5014051;28;20046;-76
2022/08/17 12:29:34;;;;;;;52.80;49.97;;;22.70;72.80;;;;;;5012670;28;20049;-79
2022/08/17 12:32:01;;;;;;;50.50;47.80;;;22.60;73.40;;;;;;5028664;28;20443;-78
2022/08/17 12:34:33;;;;;;;55.92;52.92;;;22.50;72.60;;;;;;5029525;28;20033;-79
2022/08/17 12:37:01;;;;;;;55.35;52.58;;;22.50;73.30;;;;;;5029508;28;20034;-79
2022/08/17 12:39:28;;;;;;;49.97;47.17;;;22.50;73.10;;;;;;5036176;28;20383;-78
2022/08/17 12:41:56;;;;;;;68.32;64.95;;;22.60;74.50;;;;;;5032816;28;20046;-78
2022/08/17 12:44:33;;;;;;;76.28;72.18;;;22.60;73.80;;;;;;5039639;28;20495;-79
2022/08/17 12:47:02;;;;;;;45.13;42.80;;;22.90;73.10;;;;;;5042978;28;20056;-76
2022/08/17 12:49:29;;;;;;;40.63;38.63;;;23.10;72.30;;;;;;5049513;28;20029;-76
2022/08/17 12:52:23;;;;;;;41.53;39.45;;;23.20;70.40;;;;;;5050444;28;20036;-76
2022/08/17 12:54:56;;;;;;;35.55;33.85;;;23.30;69.70;;;;;;5049063;28;20032;-79
2022/08/17 12:57:38;;;;;;;34.50;32.78;;;23.50;69.30;;;;;;5033124;28;20048;-78
2022/08/17 13:00:20;;;;;;;37.03;34.92;;;23.60;68.10;;;;;;5050150;28;20033;-77
2022/08/17 13:02:48;;;;;;;40.63;38.55;;;23.70;68.10;;;;;;5049107;28;20036;-77
2022/08/17 13:05:30;;;;;;;38.47;36.47;;;23.90;68.50;;;;;;5049329;28;20044;-77
2022/08/17 13:07:57;;;;;;;42.15;40.03;;;24.10;65.80;;;;;;5033138;28;20392;-79
2022/08/17 13:10:25;;;;;;;43.08;40.97;;;24.30;65.40;;;;;;5032279;28;20033;-77
2022/08/17 13:12:51;;;;;;;43.67;41.47;;;24.30;66.10;;;;;;5049146;28;20392;-77
2022/08/17 13:15:23;;;;;;;38.33;36.42;;;24.40;65.30;;;;;;5032227;28;20033;-77
2022/08/17 13:18:04;;;;;;;40.38;38.42;;;24.20;64.30;;;;;;5032464;28;20034;-77
2022/08/17 13:20:31;;;;;;;42.20;40.00;;;24.20;65.50;;;;;;5032584;28;20041;-77
2022/08/17 13:23:05;;;;;;;42.17;40.08;;;24.20;66.30;;;;;;5048609;28;20033;-77
2022/08/17 13:25:32;;;;;;;42.78;40.58;;;24.40;64.00;;;;;;5049167;28;20355;-77
2022/08/17 13:27:58;;;;;;;42.13;40.08;;;24.40;65.20;;;;;;5032411;28;20041;-77
2022/08/17 13:30:32;;;;;;;40.05;38.15;;;24.60;63.80;;;;;;5049885;28;20382;-77